Time;durP1;ratioP1;P1;durP2;ratioP2;P2;SDS_P1;SDS_P2;PMS_P1;PMS_P2;Temp;Humidity;BMP_temperature;BMP_pressure;BME280_temperature;BME280_humidity;BME280_pressure;Samples;Min_cycle;Max_cycle;Signal;HPM_P1;HPM_P2
2023/04/07 00:00:40;;;;;;;25.00;8.93;;;;;;;;;;5095226;28;20685;-84
2023/04/07 00:03:07;;;;;;;20.40;8.20;;;;;;;;;;5076252;28;20216;-85
2023/04/07 00:05:33;;;;;;;17.87;8.27;;;;;;;;;;5076062;28;20631;-85
2023/04/07 00:08:00;;;;;;;13.47;7.57;;;;;;;;;;5075854;28;20217;-84
2023/04/07 00:10:26;;;;;;;15.50;8.90;;;;;;;;;;5075561;28;20301;-84
2023/04/07 00:12:54;;;;;;;25.80;9.77;;;;;;;;;;5094094;28;20175;-84
2023/04/07 00:15:22;;;;;;;22.57;9.17;;;4.80;99.90;;;;;;5076132;28;20740;-85
2023/04/07 00:17:48;;;;;;;25.17;9.90;;;;;;;;;;5076092;28;20181;-84
2023/04/07 00:20:14;;;;;;;12.70;7.87;;;;;;;;;;5075762;28;20189;-84
2023/04/07 00:22:41;;;;;;;24.60;9.40;;;;;;;;;;5093676;28;20651;-84
2023/04/07 00:25:07;;;;;;;19.17;8.10;;;4.90;99.90;;;;;;5093648;28;20175;-85
2023/04/07 00:27:33;;;;;;;14.07;7.17;;;4.90;99.90;;;;;;5075284;28;20646;-84
2023/04/07 00:29:59;;;;;;;15.93;8.60;;;;;;;;;;5075522;28;20269;-83
2023/04/07 00:32:25;;;;;;;19.03;8.60;;;;;;;;;;5058235;28;20273;-84
2023/04/07 00:34:51;;;;;;;16.67;7.10;;;;;;;;;;5075530;28;20210;-85
2023/04/07 00:37:18;;;;;;;35.57;10.03;;;;;;;;;;5093149;28;20231;-85
2023/04/07 00:39:44;;;;;;;21.90;9.67;;;;;;;;;;5093734;28;20170;-85
2023/04/07 00:42:10;;;;;;;18.20;8.03;;;;;;;;;;5063053;28;20703;-83
2023/04/07 00:44:36;;;;;;;19.30;9.57;;;;;;;;;;5100101;28;20186;-84
2023/04/07 00:47:02;;;;;;;21.77;10.53;;;;;;;;;;5059933;28;20213;-84
2023/04/07 00:49:28;;;;;;;16.00;8.33;;;;;;;;;;5075428;28;20299;-83
2023/04/07 00:51:55;;;;;;;23.50;8.70;;;;;;;;;;5075574;28;20261;-83
2023/04/07 00:54:22;;;;;;;22.73;9.23;;;5.10;99.90;;;;;;5093220;28;20228;-83
2023/04/07 00:56:48;;;;;;;16.23;9.70;;;5.20;99.90;;;;;;5093397;28;20631;-84
2023/04/07 00:59:14;;;;;;;25.73;8.57;;;5.20;99.90;;;;;;5074999;28;20186;-84
2023/04/07 01:01:45;;;;;;;20.57;9.50;;;5.20;99.90;;;;;;5059138;28;20259;-84
2023/04/07 01:04:34;;;;;;;16.33;9.30;;;5.20;99.90;;;;;;5074979;28;20277;-84
2023/04/07 01:07:12;;;;;;;24.50;8.70;;;5.30;99.90;;;;;;5073130;28;20291;-84
2023/04/07 01:09:46;;;;;;;18.53;9.73;;;5.30;99.90;;;;;;5075497;28;20170;-84
2023/04/07 01:12:22;;;;;;;18.23;8.43;;;5.70;99.90;;;;;;5075193;28;20620;-85
2023/04/07 01:14:52;;;;;;;16.70;8.80;;;5.30;99.90;;;;;;5075192;28;20719;-84
2023/04/07 01:17:22;;;;;;;23.20;9.17;;;5.30;99.90;;;;;;5093015;28;20163;-85
2023/04/07 01:19:57;;;;;;;19.37;8.93;;;5.30;99.90;;;;;;5094129;28;20198;-85
2023/04/07 01:22:43;;;;;;;14.87;7.67;;;6.50;99.90;;;;;;5097101;28;20169;-85
2023/04/07 01:25:32;;;;;;;18.80;10.27;;;5.40;99.90;;;;;;5079288;28;20710;-84
2023/04/07 01:28:10;;;;;;;17.80;9.87;;;5.40;99.90;;;;;;5078621;28;20241;-85
2023/04/07 01:30:40;;;;;;;26.27;8.23;;;5.40;99.90;;;;;;5078807;28;20623;-85
2023/04/07 01:33:08;;;;;;;18.27;8.57;;;5.40;99.90;;;;;;5097313;28;20163;-85
2023/04/07 01:35:35;;;;;;;18.57;7.33;;;5.40;99.90;;;;;;5096949;28;20693;-84
2023/04/07 01:38:02;;;;;;;16.83;8.07;;;;;;;;;;5062281;28;20544;-84
2023/04/07 01:40:29;;;;;;;14.57;8.00;;;5.40;99.90;;;;;;5096597;28;20178;-85
2023/04/07 01:42:56;;;;;;;15.97;8.93;;;5.40;99.90;;;;;;5078955;28;20237;-86
2023/04/07 01:45:23;;;;;;;27.67;9.33;;;;;;;;;;5078644;28;20190;-85
2023/04/07 01:47:49;;;;;;;17.90;8.30;;;5.50;99.90;;;;;;5096781;28;20179;-84
2023/04/07 01:50:15;;;;;;;17.47;8.53;;;5.50;99.90;;;;;;5096687;28;20189;-87
2023/04/07 01:52:42;;;;;;;16.47;7.83;;;;;;;;;;5078329;28;20186;-84
2023/04/07 01:55:08;;;;;;;26.67;9.60;;;5.50;99.90;;;;;;5061891;28;20242;-84
2023/04/07 01:57:34;;;;;;;23.60;10.03;;;5.60;99.90;;;;;;5095977;28;20176;-84
2023/04/07 02:00:00;;;;;;;20.13;9.00;;;5.60;99.90;;;;;;5078424;28;20585;-85
2023/04/07 02:02:27;;;;;;;31.23;9.70;;;5.80;99.90;;;;;;5077848;28;20183;-85
2023/04/07 02:05:02;;;;;;;42.80;11.97;;;5.70;99.90;;;;;;5061716;28;20243;-85
2023/04/07 02:07:52;;;;;;;16.87;8.70;;;5.70;99.90;;;;;;5096116;28;20630;-85
2023/04/07 02:10:21;;;;;;;24.23;9.70;;;5.60;99.90;;;;;;5077949;28;20198;-86
2023/04/07 02:12:48;;;;;;;24.97;9.57;;;5.70;99.90;;;;;;5078102;28;20190;-85
2023/04/07 02:15:15;;;;;;;15.80;9.50;;;5.70;99.90;;;;;;5078267;28;20650;-85
2023/04/07 02:17:45;;;;;;;17.87;8.97;;;5.70;99.90;;;;;;5077922;28;20182;-86
2023/04/07 02:20:12;;;;;;;20.17;9.93;;;5.80;99.90;;;;;;5096293;28;20228;-85
2023/04/07 02:22:38;;;;;;;23.60;9.30;;;;;;;;;;5078208;28;20186;-86
2023/04/07 02:25:27;;;;;;;25.83;10.50;;;5.80;99.90;;;;;;5077707;28;20227;-85
2023/04/07 02:27:55;;;;;;;16.37;7.73;;;5.80;99.90;;;;;;5077971;28;20250;-85
2023/04/07 02:30:21;;;;;;;26.83;10.87;;;5.80;99.90;;;;;;5061003;28;20178;-86
2023/04/07 02:32:47;;;;;;;17.67;9.40;;;;;;;;;;5076788;28;20188;-86
2023/04/07 02:35:14;;;;;;;17.53;10.37;;;5.80;99.90;;;;;;5077602;28;20221;-85
2023/04/07 02:37:41;;;;;;;20.50;8.50;;;5.80;99.90;;;;;;5061582;28;20186;-85
2023/04/07 02:40:10;;;;;;;16.33;8.50;;;5.90;99.90;;;;;;5079976;28;20639;-85
2023/04/07 02:42:36;;;;;;;16.07;9.07;;;;;;;;;;5060689;28;20197;-86
2023/04/07 02:45:03;;;;;;;19.47;8.57;;;6.00;99.90;;;;;;5077682;28;20191;-85
2023/04/07 02:47:29;;;;;;;20.47;9.60;;;;;;;;;;5060629;28;20174;-85
2023/04/07 02:49:56;;;;;;;16.37;8.03;;;;;;;;;;5077684;28;20178;-85
2023/04/07 02:52:22;;;;;;;18.23;9.67;;;;;;;;;;5077139;28;20628;-86
2023/04/07 02:54:48;;;;;;;23.43;9.33;;;;;;;;;;5096144;28;20210;-85
2023/04/07 02:57:14;;;;;;;16.67;8.30;;;;;;;;;;5095471;28;20175;-85
2023/04/07 02:59:40;;;;;;;20.80;9.77;;;;;;;;;;5084391;28;20183;-85
2023/04/07 03:02:06;;;;;;;23.63;8.40;;;;;;;;;;5089957;28;20190;-84
2023/04/07 03:04:33;;;;;;;20.67;9.83;;;;;;;;;;5090143;28;20182;-85
2023/04/07 03:06:59;;;;;;;27.43;11.37;;;;;;;;;;5075055;28;20191;-85
2023/04/07 03:09:25;;;;;;;22.00;11.70;;;;;;;;;;5114868;27;20166;-86
2023/04/07 03:11:51;;;;;;;30.97;10.13;;;;;;;;;;5119905;27;20162;-84
2023/04/07 03:14:17;;;;;;;21.57;9.03;;;;;;;;;;5102063;28;20198;-84
2023/04/07 03:16:43;;;;;;;20.83;8.43;;;6.30;99.90;;;;;;5119464;27;20170;-84
2023/04/07 03:19:09;;;;;;;30.67;11.80;;;;;;;;;;5116317;27;20175;-84
2023/04/07 03:21:37;;;;;;;27.03;10.83;;;8.00;99.90;;;;;;5107072;28;20179;-84
2023/04/07 03:24:03;;;;;;;21.23;10.23;;;6.40;99.90;;;;;;5111127;28;20208;-84
2023/04/07 03:26:29;;;;;;;23.50;10.30;;;6.50;99.90;;;;;;5094618;28;20245;-85
2023/04/07 03:28:55;;;;;;;20.10;9.47;;;6.50;99.90;;;;;;5093600;28;20178;-84
2023/04/07 03:31:21;;;;;;;17.27;8.10;;;6.50;99.90;;;;;;5097402;28;20170;-84
2023/04/07 03:33:48;;;;;;;16.70;9.47;;;6.60;99.90;;;;;;5058826;28;20195;-84
2023/04/07 03:36:13;;;;;;;26.17;10.43;;;6.60;99.90;;;;;;5064355;28;20171;-84
2023/04/07 03:38:39;;;;;;;22.67;9.83;;;;;;;;;;5057073;28;20632;-85
2023/04/07 03:41:06;;;;;;;23.53;10.30;;;;;;;;;;5062458;28;20230;-84
2023/04/07 03:43:32;;;;;;;17.90;8.10;;;;;;;;;;5074502;28;20293;-84
2023/04/07 03:45:58;;;;;;;17.30;7.80;;;;;;;;;;5055553;28;20187;-84
2023/04/07 03:48:24;;;;;;;19.07;9.27;;;;;;;;;;5062345;28;20179;-83
2023/04/07 03:50:50;;;;;;;16.97;7.47;;;6.80;99.90;;;;;;5083650;28;20212;-85
2023/04/07 03:53:15;;;;;;;22.47;8.80;;;5.40;99.90;;;;;;5057816;28;20187;-83
2023/04/07 03:55:42;;;;;;;12.60;7.20;;;6.80;99.90;;;;;;5055163;28;20211;-84
2023/04/07 03:58:08;;;;;;;17.23;7.77;;;6.80;99.90;;;;;;5073537;28;20159;-84
2023/04/07 04:00:34;;;;;;;20.33;8.93;;;6.80;99.90;;;;;;5055557;28;20198;-84
2023/04/07 04:03:00;;;;;;;16.33;9.00;;;6.90;99.90;;;;;;5048807;28;20266;-83
2023/04/07 04:05:26;;;;;;;15.37;8.40;;;6.90;99.90;;;;;;5072011;28;20313;-83
2023/04/07 04:07:52;;;;;;;12.77;7.77;;;6.90;99.90;;;;;;5051749;28;20281;-83
2023/04/07 04:10:21;;;;;;;14.67;8.00;;;6.60;99.90;;;;;;5043580;28;20255;-84
2023/04/07 04:12:47;;;;;;;17.80;8.70;;;;;;;;;;5071104;28;20191;-85
2023/04/07 04:15:13;;;;;;;13.57;6.50;;;;;;;;;;5071655;28;20214;-85
2023/04/07 04:17:40;;;;;;;17.67;6.97;;;;;;;;;;5054453;28;20266;-84
2023/04/07 04:20:07;;;;;;;13.30;7.57;;;7.00;99.90;;;;;;5053813;28;20190;-84
2023/04/07 04:22:33;;;;;;;17.23;7.57;;;;;;;;;;5064200;28;20189;-85
2023/04/07 04:24:59;;;;;;;13.10;7.13;;;;;;;;;;5054297;28;20187;-84
2023/04/07 04:27:25;;;;;;;16.63;7.60;;;;;;;;;;5053051;28;20238;-84
2023/04/07 04:29:52;;;;;;;14.90;7.43;;;;;;;;;;5061306;28;20187;-84
2023/04/07 04:32:28;;;;;;;12.60;8.07;;;7.20;99.90;;;;;;5060771;28;20190;-86
2023/04/07 04:34:54;;;;;;;16.30;7.23;;;;;;;;;;5045838;28;20282;-86
2023/04/07 04:37:20;;;;;;;14.80;7.00;;;;;;;;;;5062899;28;20183;-87
2023/04/07 04:39:47;;;;;;;16.07;8.03;;;;;;;;;;5057707;28;20236;-86
2023/04/07 04:42:13;;;;;;;13.23;7.53;;;;;;;;;;5058130;28;20222;-85
2023/04/07 04:44:39;;;;;;;15.87;7.87;;;;;;;;;;5053423;28;20186;-85
2023/04/07 04:47:05;;;;;;;12.17;6.60;;;;;;;;;;5054191;28;20620;-85
2023/04/07 04:49:31;;;;;;;18.50;8.33;;;;;;;;;;5053861;28;20192;-86
2023/04/07 04:51:57;;;;;;;15.23;8.30;;;;;;;;;;5053097;28;20187;-86
2023/04/07 04:54:25;;;;;;;17.27;7.90;;;7.60;99.90;;;;;;5061682;28;20718;-87
2023/04/07 04:56:51;;;;;;;17.27;7.83;;;;;;;;;;5063354;28;20209;-85
2023/04/07 04:59:17;;;;;;;17.70;6.87;;;;;;;;;;5056989;28;20661;-85
2023/04/07 05:01:43;;;;;;;12.73;7.87;;;;;;;;;;5067478;28;20654;-86
2023/04/07 05:04:09;;;;;;;16.17;7.70;;;;;;;;;;5057579;28;20248;-84
2023/04/07 05:06:36;;;;;;;14.83;7.77;;;;;;;;;;5059597;28;20215;-84
2023/04/07 05:09:02;;;;;;;15.37;7.17;;;;;;;;;;5059305;28;20215;-84
2023/04/07 05:11:28;;;;;;;14.83;7.33;;;;;;;;;;5058930;28;20531;-83
2023/04/07 05:13:53;;;;;;;13.23;7.87;;;7.70;99.90;;;;;;5050146;28;20193;-83
2023/04/07 05:16:19;;;;;;;13.83;6.70;;;;;;;;;;5061853;28;20182;-84
2023/04/07 05:18:45;;;;;;;12.20;6.93;;;7.80;99.90;;;;;;5096596;28;20175;-84
2023/04/07 05:21:11;;;;;;;12.57;8.10;;;;;;;;;;5078363;28;20627;-83
2023/04/07 05:23:37;;;;;;;15.37;9.07;;;7.80;99.90;;;;;;5061567;28;20194;-83
2023/04/07 05:26:02;;;;;;;20.40;9.87;;;7.80;99.90;;;;;;5077706;28;20197;-83
2023/04/07 05:28:28;;;;;;;15.83;9.37;;;;;;;;;;5078058;28;20258;-84
2023/04/07 05:30:54;;;;;;;18.20;8.20;;;7.90;99.90;;;;;;5078219;28;20175;-84
2023/04/07 05:33:20;;;;;;;20.37;8.90;;;;;;;;;;5062121;28;20179;-84
2023/04/07 05:35:46;;;;;;;24.40;9.57;;;;;;;;;;5061678;28;20222;-85
2023/04/07 05:38:13;;;;;;;21.57;11.23;;;7.90;99.90;;;;;;5077419;28;20217;-83
2023/04/07 05:40:40;;;;;;;22.73;11.33;;;7.90;99.90;;;;;;5096085;28;20178;-84
2023/04/07 05:43:05;;;;;;;14.03;8.07;;;7.90;99.90;;;;;;5077795;28;20674;-84
2023/04/07 05:45:31;;;;;;;10.50;6.50;;;7.90;99.90;;;;;;5061276;28;20261;-84
2023/04/07 05:47:57;;;;;;;11.30;5.67;;;7.90;99.90;;;;;;5077789;28;20182;-84
2023/04/07 05:50:22;;;;;;;17.20;7.77;;;7.90;99.90;;;;;;5077886;28;20174;-85
2023/04/07 05:52:48;;;;;;;11.80;5.77;;;;;;;;;;5077652;28;20185;-84
2023/04/07 05:55:16;;;;;;;13.70;6.97;;;;;;;;;;5077832;28;20694;-84
2023/04/07 05:57:42;;;;;;;24.63;15.57;;;;;;;;;;5078242;28;20604;-85
2023/04/07 06:00:08;;;;;;;16.37;8.60;;;7.90;99.90;;;;;;5077464;28;20189;-83
2023/04/07 06:02:34;;;;;;;10.47;5.93;;;;;;;;;;5095694;28;20197;-84
2023/04/07 06:05:00;;;;;;;11.23;5.43;;;8.00;99.90;;;;;;5077490;28;20220;-84
2023/04/07 06:07:26;;;;;;;12.60;6.90;;;;;;;;;;5059852;28;20236;-83
2023/04/07 06:09:52;;;;;;;12.27;7.40;;;8.00;99.90;;;;;;5077137;28;20182;-83
2023/04/07 06:12:18;;;;;;;12.40;7.63;;;;;;;;;;5043827;28;20223;-84
2023/04/07 06:14:50;;;;;;;12.47;7.30;;;8.00;99.90;;;;;;5095108;28;20210;-85
2023/04/07 06:17:16;;;;;;;12.00;6.90;;;;;;;;;;5077192;28;20188;-83
2023/04/07 06:19:41;;;;;;;15.87;7.67;;;8.00;99.90;;;;;;5077282;28;20213;-82
2023/04/07 06:22:07;;;;;;;16.77;7.57;;;8.40;99.90;;;;;;5029428;28;20477;-82
2023/04/07 06:24:33;;;;;;;20.90;7.97;;;8.10;99.90;;;;;;5051777;28;20191;-84
2023/04/07 06:27:00;;;;;;;17.90;8.97;;;8.10;99.90;;;;;;5076453;28;20237;-82
2023/04/07 06:29:27;;;;;;;25.00;10.37;;;8.10;99.90;;;;;;5094718;28;20198;-83
2023/04/07 06:31:53;;;;;;;32.00;13.13;;;8.10;99.90;;;;;;5060288;28;20183;-83
2023/04/07 06:34:39;;;;;;;27.57;10.87;;;8.10;99.90;;;;;;5077504;28;20218;-87
2023/04/07 06:37:11;;;;;;;21.63;9.93;;;8.20;99.90;;;;;;5079151;28;20647;-89
2023/04/07 06:39:40;;;;;;;29.80;16.30;;;8.80;99.90;;;;;;5079571;28;20631;-92
2023/04/07 06:42:06;;;;;;;28.57;14.30;;;;;;;;;;5080510;28;20205;-91
2023/04/07 06:44:34;;;;;;;33.87;15.83;;;;;;;;;;5079483;28;20197;-91
2023/04/07 06:47:03;;;;;;;48.70;18.67;;;;;;;;;;5063140;28;20672;-91
2023/04/07 06:49:29;;;;;;;35.57;15.17;;;;;;;;;;5080097;28;20179;-91
2023/04/07 06:51:55;;;;;;;34.47;13.37;;;;;;;;;;5062640;28;20348;-91
2023/04/07 06:54:21;;;;;;;29.70;13.30;;;;;;;;;;5067344;28;20207;-91
2023/04/07 06:56:47;;;;;;;35.00;13.47;;;8.30;99.90;;;;;;5041737;28;20191;-91
2023/04/07 06:59:12;;;;;;;29.60;12.57;;;8.30;99.90;;;;;;5040994;28;20183;-91
2023/04/07 07:01:38;;;;;;;33.10;12.10;;;8.40;99.90;;;;;;5056431;28;20179;-85
2023/04/07 07:04:05;;;;;;;22.90;11.00;;;;;;;;;;5056210;28;20600;-86
2023/04/07 07:06:31;;;;;;;32.33;10.77;;;;;;;;;;5057337;28;20191;-89
2023/04/07 07:08:59;;;;;;;39.10;16.87;;;;;;;;;;5066062;28;20179;-86
2023/04/07 07:11:26;;;;;;;24.33;12.20;;;;;;;;;;5049227;28;20179;-85
2023/04/07 07:13:52;;;;;;;24.53;9.60;;;;;;;;;;5065225;28;20190;-85
2023/04/07 07:16:18;;;;;;;17.07;7.53;;;;;;;;;;5056633;28;20191;-86
2023/04/07 07:18:44;;;;;;;15.47;6.77;;;;;;;;;;5056054;28;20187;-85
2023/04/07 07:21:10;;;;;;;12.97;6.80;;;;;;;;;;5055556;28;20179;-85
2023/04/07 07:23:36;;;;;;;10.27;5.43;;;8.50;99.90;;;;;;5039408;28;20187;-85
2023/04/07 07:26:02;;;;;;;14.37;5.60;;;8.30;99.90;;;;;;5073278;28;20673;-84
2023/04/07 07:28:28;;;;;;;8.73;4.87;;;;;;;;;;5055613;28;20214;-85
2023/04/07 07:30:54;;;;;;;10.77;4.10;;;8.00;99.90;;;;;;5055809;28;20237;-84
2023/04/07 07:33:21;;;;;;;10.10;4.90;;;;;;;;;;5076181;28;20178;-86
2023/04/07 07:35:47;;;;;;;6.57;3.50;;;7.70;99.90;;;;;;5075000;28;20679;-86
2023/04/07 07:38:14;;;;;;;6.37;3.43;;;;;;;;;;5054744;28;20179;-86
2023/04/07 07:40:47;;;;;;;7.93;4.43;;;7.50;99.90;;;;;;5071150;28;20186;-85
2023/04/07 07:43:13;;;;;;;13.87;4.97;;;7.50;99.90;;;;;;5075012;28;20674;-86
2023/04/07 07:45:39;;;;;;;10.63;4.27;;;;;;;;;;5060003;28;20182;-85
2023/04/07 07:48:04;;;;;;;6.57;4.07;;;7.50;99.90;;;;;;5074795;28;20174;-84
2023/04/07 07:50:30;;;;;;;6.53;3.03;;;7.40;99.90;;;;;;5092432;28;20174;-86
2023/04/07 07:52:57;;;;;;;8.07;3.57;;;;;;;;;;5056663;28;20539;-85
2023/04/07 07:55:23;;;;;;;6.27;2.93;;;;;;;;;;5054748;28;20207;-85
2023/04/07 07:57:49;;;;;;;4.60;3.10;;;;;;;;;;5054492;28;20205;-85
2023/04/07 08:00:15;;;;;;;8.40;2.83;;;;;;;;;;5037894;28;20260;-85
2023/04/07 08:02:41;;;;;;;5.07;2.77;;;;;;;;;;5061275;28;20199;-85
2023/04/07 08:05:07;;;;;;;6.10;3.00;;;7.50;99.90;;;;;;5074187;28;20235;-85
2023/04/07 08:07:33;;;;;;;5.97;3.40;;;7.50;99.90;;;;;;5074319;28;20182;-85
2023/04/07 08:09:59;;;;;;;7.77;3.43;;;;;;;;;;5074566;28;20197;-85
2023/04/07 08:12:25;;;;;;;6.23;3.70;;;;;;;;;;5058677;28;20215;-86
2023/04/07 08:14:50;;;;;;;4.47;3.50;;;7.70;99.90;;;;;;5073817;28;20218;-86
2023/04/07 08:17:21;;;;;;;5.60;3.70;;;7.80;99.90;;;;;;5041085;28;20190;-85
2023/04/07 08:19:47;;;;;;;6.00;3.37;;;;;;;;;;5075414;28;20533;-83
2023/04/07 08:22:13;;;;;;;7.17;3.63;;;;;;;;;;5075808;28;20178;-86
2023/04/07 08:24:46;;;;;;;4.77;3.50;;;;;;;;;;5081702;28;20189;-86
2023/04/07 08:27:12;;;;;;;5.83;3.60;;;8.00;99.90;;;;;;5081064;28;20322;-85
2023/04/07 08:29:38;;;;;;;6.20;3.20;;;8.10;99.90;;;;;;5058316;28;20189;-85
2023/04/07 08:32:04;;;;;;;7.80;3.93;;;;;;;;;;5038125;28;20190;-85
2023/04/07 08:34:30;;;;;;;4.90;2.90;;;8.50;99.90;;;;;;5054799;28;20198;-85
2023/04/07 08:36:56;;;;;;;9.10;3.40;;;;;;;;;;5024111;28;20248;-84
2023/04/07 08:39:24;;;;;;;17.53;7.10;;;8.90;99.90;;;;;;5063052;28;20631;-84
2023/04/07 08:41:50;;;;;;;8.83;4.13;;;9.00;99.90;;;;;;5049839;28;20183;-84
2023/04/07 08:44:16;;;;;;;10.50;3.78;;;9.00;99.90;;;;;;5066439;28;20269;-85
2023/04/07 08:46:43;;;;;;;4.17;2.90;;;9.10;99.90;;;;;;5055824;28;20261;-84
2023/04/07 08:49:12;;;;;;;7.53;3.87;;;9.20;99.90;;;;;;5065629;28;20209;-84
2023/04/07 08:51:48;;;;;;;5.30;2.87;;;9.20;99.90;;;;;;5063432;28;20177;-84
2023/04/07 08:54:17;;;;;;;5.53;2.70;;;8.80;99.90;;;;;;5065942;28;20248;-84
2023/04/07 08:56:43;;;;;;;4.95;2.78;;;9.60;99.90;;;;;;5082197;28;20318;-86
2023/04/07 08:59:11;;;;;;;2.90;2.50;;;9.70;99.90;;;;;;5087913;28;20219;-84
2023/04/07 09:01:38;;;;;;;7.40;3.20;;;9.70;99.90;;;;;;5069597;28;20182;-83
2023/04/07 09:04:05;;;;;;;6.88;3.13;;;9.70;99.90;;;;;;5075981;28;20193;-84
2023/04/07 09:06:31;;;;;;;6.30;3.33;;;9.70;99.90;;;;;;5066034;28;20180;-83
2023/04/07 09:08:57;;;;;;;5.22;3.17;;;9.60;99.90;;;;;;5089214;28;20190;-85
2023/04/07 09:11:25;;;;;;;7.30;3.73;;;9.70;99.90;;;;;;5094789;28;20186;-84
2023/04/07 09:13:50;;;;;;;6.00;3.78;;;9.80;99.90;;;;;;5091378;28;20155;-85
2023/04/07 09:16:16;;;;;;;5.90;2.83;;;9.90;99.90;;;;;;5077159;28;20210;-84
2023/04/07 09:18:42;;;;;;;4.68;2.25;;;9.90;99.90;;;;;;5039108;28;20251;-83
2023/04/07 09:21:10;;;;;;;3.45;2.53;;;9.90;99.90;;;;;;5076219;28;20179;-83
2023/04/07 09:23:47;;;;;;;3.42;2.20;;;9.80;99.90;;;;;;5069328;28;20209;-86
2023/04/07 09:26:21;;;;;;;2.53;1.90;;;9.70;99.90;;;;;;5076259;28;20206;-84
2023/04/07 09:29:07;;;;;;;4.28;2.75;;;9.70;99.90;;;;;;5096856;28;20178;-85
2023/04/07 09:31:49;;;;;;;2.97;2.22;;;8.70;99.90;;;;;;5048677;28;20396;-85
2023/04/07 09:34:29;;;;;;;3.40;2.45;;;9.50;99.90;;;;;;5074154;28;20169;-85
2023/04/07 09:36:56;;;;;;;3.95;2.50;;;10.00;99.90;;;;;;5086116;28;20175;-85
2023/04/07 09:39:22;;;;;;;3.70;2.40;;;9.50;99.90;;;;;;5059265;28;20209;-84
2023/04/07 09:41:48;;;;;;;7.30;2.88;;;9.60;99.90;;;;;;5061282;28;20187;-84
2023/04/07 09:44:14;;;;;;;5.25;3.38;;;9.70;99.90;;;;;;5072281;28;20170;-84
2023/04/07 09:46:50;;;;;;;5.90;3.60;;;9.70;99.90;;;;;;5047925;28;20191;-84
2023/04/07 09:49:15;;;;;;;4.60;2.87;;;9.60;99.90;;;;;;5084379;28;20171;-84
2023/04/07 09:51:58;;;;;;;4.93;2.35;;;9.60;99.90;;;;;;5047651;28;20169;-84
2023/04/07 09:54:35;;;;;;;8.50;3.03;;;9.60;99.90;;;;;;5069617;28;20709;-86
2023/04/07 09:57:05;;;;;;;9.93;4.27;;;9.50;99.90;;;;;;5071250;28;20252;-85
2023/04/07 09:59:33;;;;;;;7.45;3.25;;;9.30;99.90;;;;;;5043754;28;20193;-84
2023/04/07 10:02:00;;;;;;;8.70;3.00;;;8.50;99.90;;;;;;5053323;28;20184;-84
2023/04/07 10:04:26;;;;;;;6.80;2.77;;;;;;;;;;5047574;28;20182;-84
2023/04/07 10:06:56;;;;;;;6.20;2.57;;;9.00;99.90;;;;;;5063789;28;20195;-85
2023/04/07 10:09:24;;;;;;;4.77;2.97;;;9.00;99.90;;;;;;5065761;28;20632;-85
2023/04/07 10:11:51;;;;;;;9.50;3.97;;;9.00;99.90;;;;;;5067355;28;20193;-86
2023/04/07 10:14:18;;;;;;;6.93;3.20;;;8.90;99.90;;;;;;5094580;28;20694;-84
2023/04/07 10:16:47;;;;;;;13.70;5.10;;;8.80;99.90;;;;;;5077071;28;20228;-85
2023/04/07 10:19:14;;;;;;;11.93;5.10;;;8.70;99.90;;;;;;5095061;28;20170;-84
2023/04/07 10:21:42;;;;;;;6.33;3.57;;;8.70;99.90;;;;;;5036536;28;20179;-84
2023/04/07 10:24:48;;;;;;;8.97;3.50;;;8.50;99.90;;;;;;5059192;28;20266;-84
2023/04/07 10:27:18;;;;;;;3.47;2.70;;;8.20;99.90;;;;;;5074335;28;20223;-84
2023/04/07 10:29:51;;;;;;;4.83;3.20;;;7.90;99.90;;;;;;5075415;28;20583;-84
2023/04/07 10:32:17;;;;;;;16.10;5.37;;;7.80;99.90;;;;;;5071055;28;20179;-84
2023/04/07 10:34:49;;;;;;;15.97;7.77;;;7.80;99.90;;;;;;5071472;28;20253;-86
2023/04/07 10:37:19;;;;;;;17.57;7.30;;;7.80;99.90;;;;;;5080744;28;20265;-84
2023/04/07 10:39:46;;;;;;;13.33;6.30;;;7.80;99.90;;;;;;5050355;28;20814;-85
2023/04/07 10:42:40;;;;;;;19.93;9.47;;;7.90;99.90;;;;;;5067117;28;20182;-85
2023/04/07 10:45:09;;;;;;;15.87;5.93;;;8.00;99.90;;;;;;5085476;28;20264;-85
2023/04/07 10:47:59;;;;;;;22.67;6.23;;;8.00;99.90;;;;;;5047315;28;20286;-84
2023/04/07 10:50:25;;;;;;;10.70;5.80;;;8.10;99.90;;;;;;5071484;28;20266;-84
2023/04/07 10:53:08;;;;;;;14.33;6.47;;;8.10;99.90;;;;;;5049650;28;20286;-85
2023/04/07 10:55:38;;;;;;;9.03;4.23;;;8.20;99.90;;;;;;5086681;28;20206;-83
2023/04/07 10:58:22;;;;;;;16.10;5.87;;;8.30;99.90;;;;;;5078020;28;20252;-84
2023/04/07 11:01:06;;;;;;;13.60;7.80;;;8.50;99.90;;;;;;5072858;28;20215;-83
2023/04/07 11:03:52;;;;;;;4.63;3.00;;;8.60;99.90;;;;;;5079410;28;20320;-85
2023/04/07 11:06:17;;;;;;;5.57;3.40;;;8.70;99.90;;;;;;5062582;28;20187;-84
2023/04/07 11:08:45;;;;;;;5.20;3.03;;;8.80;99.90;;;;;;5058615;28;20183;-84
2023/04/07 11:11:12;;;;;;;5.77;3.03;;;8.80;99.90;;;;;;5083310;28;20175;-83
2023/04/07 11:13:43;;;;;;;4.80;2.97;;;8.80;99.90;;;;;;5076435;28;20185;-83
2023/04/07 11:16:09;;;;;;;6.07;2.80;;;8.80;99.90;;;;;;5094153;28;20194;-83
2023/04/07 11:18:36;;;;;;;5.10;2.63;;;8.80;99.90;;;;;;5058708;28;20228;-83
2023/04/07 11:21:02;;;;;;;5.60;3.53;;;8.90;99.90;;;;;;5076110;28;20196;-84
2023/04/07 11:23:28;;;;;;;6.80;3.20;;;9.00;99.90;;;;;;5058801;28;20202;-83
2023/04/07 11:26:01;;;;;;;5.55;3.05;;;9.00;99.90;;;;;;5058928;28;20229;-84
2023/04/07 11:28:28;;;;;;;5.03;2.83;;;9.00;99.90;;;;;;5058639;28;20210;-84
2023/04/07 11:30:55;;;;;;;4.90;2.77;;;9.00;99.90;;;;;;5075597;28;20219;-83
2023/04/07 11:33:23;;;;;;;7.70;3.47;;;9.00;99.90;;;;;;5075439;28;20171;-82
2023/04/07 11:35:56;;;;;;;16.77;3.70;;;8.90;99.90;;;;;;5075399;28;20198;-83
2023/04/07 11:38:24;;;;;;;6.97;3.33;;;8.80;99.90;;;;;;5068513;28;20666;-82
2023/04/07 11:40:50;;;;;;;9.03;2.87;;;8.80;99.90;;;;;;5059816;28;20544;-83
2023/04/07 11:43:26;;;;;;;4.83;2.87;;;8.90;99.90;;;;;;5048396;28;20659;-83
2023/04/07 11:46:10;;;;;;;3.33;2.20;;;9.00;99.90;;;;;;5031267;28;20179;-84
2023/04/07 11:48:37;;;;;;;6.93;3.93;;;9.10;99.90;;;;;;5066344;28;20632;-83
2023/04/07 11:51:03;;;;;;;9.63;3.10;;;9.10;99.90;;;;;;5085207;28;20183;-82
2023/04/07 11:53:37;;;;;;;11.35;3.50;;;9.30;99.90;;;;;;5038475;28;20184;-82
2023/04/07 11:56:15;;;;;;;6.80;2.88;;;9.40;99.90;;;;;;5071992;28;20230;-84
2023/04/07 11:58:55;;;;;;;11.00;4.03;;;9.40;99.90;;;;;;5055290;28;20697;-84
2023/04/07 12:01:23;;;;;;;9.97;3.10;;;9.20;99.90;;;;;;5054943;28;20520;-85
2023/04/07 12:04:00;;;;;;;5.03;2.30;;;9.20;99.90;;;;;;5038822;28;20190;-83
2023/04/07 12:06:33;;;;;;;5.23;2.73;;;8.90;99.90;;;;;;5054798;28;20206;-81
2023/04/07 12:09:05;;;;;;;4.13;3.00;;;8.70;99.90;;;;;;5055036;28;20195;-81
2023/04/07 12:11:31;;;;;;;5.30;2.90;;;8.60;99.90;;;;;;5071282;28;20179;-83
2023/04/07 12:13:58;;;;;;;5.57;2.93;;;8.50;99.90;;;;;;5037947;28;20189;-83
2023/04/07 12:16:23;;;;;;;15.53;3.10;;;8.40;99.90;;;;;;5071122;28;20203;-85
2023/04/07 12:18:50;;;;;;;5.90;3.10;;;8.30;99.90;;;;;;5055111;28;20228;-84
2023/04/07 12:21:16;;;;;;;6.00;2.97;;;8.20;99.90;;;;;;5072563;28;20179;-83
2023/04/07 12:23:46;;;;;;;9.43;4.40;;;8.30;99.90;;;;;;5071327;28;20171;-83
2023/04/07 12:26:12;;;;;;;7.73;3.93;;;8.30;99.90;;;;;;5071296;28;20628;-82
2023/04/07 12:28:37;;;;;;;7.00;2.10;;;8.50;99.90;;;;;;5053642;28;20274;-83
2023/04/07 12:31:04;;;;;;;8.00;3.67;;;8.60;99.90;;;;;;5072221;28;20691;-83
2023/04/07 12:33:30;;;;;;;6.87;2.93;;;8.90;99.90;;;;;;5072156;28;20171;-83
2023/04/07 12:35:58;;;;;;;4.00;2.40;;;8.90;99.90;;;;;;5055250;28;20238;-83
2023/04/07 12:38:27;;;;;;;4.90;2.63;;;9.10;99.90;;;;;;5072219;28;20273;-84
2023/04/07 12:40:53;;;;;;;5.40;3.00;;;8.80;99.90;;;;;;5056262;28;20533;-82
2023/04/07 12:43:19;;;;;;;5.45;2.83;;;9.50;99.90;;;;;;5057105;28;20178;-84
2023/04/07 12:45:46;;;;;;;6.07;2.47;;;9.70;99.90;;;;;;5055226;28;20221;-84
2023/04/07 12:48:12;;;;;;;4.85;2.42;;;9.80;99.90;;;;;;5071585;28;20766;-83
2023/04/07 12:50:39;;;;;;;10.75;4.15;;;9.80;99.90;;;;;;5073291;28;20184;-84
2023/04/07 12:53:05;;;;;;;4.60;2.30;;;9.80;99.90;;;;;;5074560;28;20175;-84
2023/04/07 12:55:35;;;;;;;8.57;4.00;;;9.70;99.90;;;;;;5072034;28;20205;-83
2023/04/07 12:58:00;;;;;;;7.22;3.00;;;9.70;99.90;;;;;;5072576;28;20183;-82
2023/04/07 13:00:26;;;;;;;4.63;2.55;;;9.60;99.90;;;;;;5055399;28;20229;-82
2023/04/07 13:02:52;;;;;;;12.10;4.35;;;9.60;99.90;;;;;;5053955;28;20179;-83
2023/04/07 13:05:18;;;;;;;11.47;3.17;;;9.50;99.90;;;;;;5054303;28;20604;-82
2023/04/07 13:07:44;;;;;;;7.82;3.53;;;9.40;99.90;;;;;;5054030;28;20171;-84
2023/04/07 13:10:10;;;;;;;5.95;3.05;;;9.30;99.90;;;;;;5054308;28;20266;-82
2023/04/07 13:12:35;;;;;;;4.60;3.33;;;9.30;99.90;;;;;;5070533;28;20534;-83
2023/04/07 13:15:02;;;;;;;6.43;3.20;;;9.30;99.90;;;;;;5054078;28;20607;-84
2023/04/07 13:17:27;;;;;;;4.40;2.70;;;9.30;99.90;;;;;;5074228;28;20189;-83
2023/04/07 13:19:53;;;;;;;5.57;2.43;;;9.40;99.90;;;;;;5074493;28;20274;-83
2023/04/07 13:22:19;;;;;;;5.73;2.50;;;9.50;99.90;;;;;;5040964;28;20175;-82
2023/04/07 13:24:45;;;;;;;4.17;2.27;;;9.70;99.90;;;;;;5074719;28;20190;-83